sensor_id;sensor_type;location;lat;lon;timestamp;P1;durP1;ratioP1;P2;durP2;ratioP2
3567;SDS011;1798;48.486;9.232;2023-06-22T00:02:00;19.53;;;8.83;;
3567;SDS011;1798;48.486;9.232;2023-06-22T00:04:28;30.47;;;9.80;;
3567;SDS011;1798;48.486;9.232;2023-06-22T00:06:54;30.20;;;11.67;;
3567;SDS011;1798;48.486;9.232;2023-06-22T00:09:21;42.77;;;9.73;;
3567;SDS011;1798;48.486;9.232;2023-06-22T00:11:47;21.70;;;9.80;;
3567;SDS011;1798;48.486;9.232;2023-06-22T00:14:14;19.17;;;9.50;;
3567;SDS011;1798;48.486;9.232;2023-06-22T00:16:41;24.33;;;10.93;;
3567;SDS011;1798;48.486;9.232;2023-06-22T00:19:07;17.30;;;9.90;;
3567;SDS011;1798;48.486;9.232;2023-06-22T00:21:38;19.70;;;9.90;;
3567;SDS011;1798;48.486;9.232;2023-06-22T00:24:05;19.33;;;9.07;;
3567;SDS011;1798;48.486;9.232;2023-06-22T00:26:32;17.53;;;8.43;;
3567;SDS011;1798;48.486;9.232;2023-06-22T00:28:59;24.03;;;10.43;;
3567;SDS011;1798;48.486;9.232;2023-06-22T00:31:25;14.33;;;8.33;;
3567;SDS011;1798;48.486;9.232;2023-06-22T00:33:52;22.23;;;8.43;;
3567;SDS011;1798;48.486;9.232;2023-06-22T00:36:19;22.67;;;9.60;;
3567;SDS011;1798;48.486;9.232;2023-06-22T00:38:47;25.90;;;9.50;;
3567;SDS011;1798;48.486;9.232;2023-06-22T00:41:15;17.63;;;8.83;;
3567;SDS011;1798;48.486;9.232;2023-06-22T00:43:43;17.87;;;8.03;;
3567;SDS011;1798;48.486;9.232;2023-06-22T00:46:09;20.30;;;9.73;;
3567;SDS011;1798;48.486;9.232;2023-06-22T00:48:36;24.47;;;8.73;;
3567;SDS011;1798;48.486;9.232;2023-06-22T00:51:03;20.83;;;9.03;;
3567;SDS011;1798;48.486;9.232;2023-06-22T00:53:30;15.50;;;8.97;;
3567;SDS011;1798;48.486;9.232;2023-06-22T00:56:01;15.50;;;8.63;;
3567;SDS011;1798;48.486;9.232;2023-06-22T00:58:28;22.73;;;9.50;;
3567;SDS011;1798;48.486;9.232;2023-06-22T01:00:55;23.43;;;9.63;;
3567;SDS011;1798;48.486;9.232;2023-06-22T01:03:22;17.17;;;8.57;;
3567;SDS011;1798;48.486;9.232;2023-06-22T01:05:49;23.60;;;9.53;;
3567;SDS011;1798;48.486;9.232;2023-06-22T01:08:19;19.40;;;9.13;;
3567;SDS011;1798;48.486;9.232;2023-06-22T01:10:54;18.73;;;9.23;;
3567;SDS011;1798;48.486;9.232;2023-06-22T01:13:28;21.40;;;7.90;;
3567;SDS011;1798;48.486;9.232;2023-06-22T01:15:57;23.00;;;9.90;;
3567;SDS011;1798;48.486;9.232;2023-06-22T01:18:28;18.57;;;8.77;;
3567;SDS011;1798;48.486;9.232;2023-06-22T01:20:56;16.13;;;8.67;;
3567;SDS011;1798;48.486;9.232;2023-06-22T01:23:26;26.87;;;10.30;;
3567;SDS011;1798;48.486;9.232;2023-06-22T01:25:57;17.77;;;7.87;;
3567;SDS011;1798;48.486;9.232;2023-06-22T01:31:22;23.93;;;9.50;;
3567;SDS011;1798;48.486;9.232;2023-06-22T01:33:51;18.23;;;9.57;;
3567;SDS011;1798;48.486;9.232;2023-06-22T01:36:20;29.87;;;11.23;;
3567;SDS011;1798;48.486;9.232;2023-06-22T01:38:48;20.23;;;10.03;;
3567;SDS011;1798;48.486;9.232;2023-06-22T01:41:15;30.27;;;8.97;;
3567;SDS011;1798;48.486;9.232;2023-06-22T01:43:42;17.83;;;8.90;;
3567;SDS011;1798;48.486;9.232;2023-06-22T01:46:11;26.33;;;10.00;;
3567;SDS011;1798;48.486;9.232;2023-06-22T01:48:38;15.43;;;7.90;;
3567;SDS011;1798;48.486;9.232;2023-06-22T01:51:06;35.43;;;11.87;;
3567;SDS011;1798;48.486;9.232;2023-06-22T01:53:32;21.63;;;8.70;;
3567;SDS011;1798;48.486;9.232;2023-06-22T01:55:59;20.70;;;10.20;;
3567;SDS011;1798;48.486;9.232;2023-06-22T01:58:26;25.70;;;9.03;;
3567;SDS011;1798;48.486;9.232;2023-06-22T02:00:55;19.10;;;8.80;;
3567;SDS011;1798;48.486;9.232;2023-06-22T02:03:28;15.80;;;8.40;;
3567;SDS011;1798;48.486;9.232;2023-06-22T02:06:01;21.93;;;9.73;;
3567;SDS011;1798;48.486;9.232;2023-06-22T02:08:30;19.10;;;9.13;;
3567;SDS011;1798;48.486;9.232;2023-06-22T02:10:59;21.40;;;8.97;;
3567;SDS011;1798;48.486;9.232;2023-06-22T02:13:26;22.30;;;9.60;;
3567;SDS011;1798;48.486;9.232;2023-06-22T02:15:53;18.00;;;8.60;;
3567;SDS011;1798;48.486;9.232;2023-06-22T02:18:20;36.47;;;9.17;;
3567;SDS011;1798;48.486;9.232;2023-06-22T02:20:48;19.60;;;9.13;;
3567;SDS011;1798;48.486;9.232;2023-06-22T02:23:15;24.37;;;8.53;;
3567;SDS011;1798;48.486;9.232;2023-06-22T02:25:41;18.87;;;8.50;;
3567;SDS011;1798;48.486;9.232;2023-06-22T02:28:09;16.87;;;8.17;;
3567;SDS011;1798;48.486;9.232;2023-06-22T02:30:36;18.40;;;9.03;;
3567;SDS011;1798;48.486;9.232;2023-06-22T02:33:04;29.33;;;9.90;;
3567;SDS011;1798;48.486;9.232;2023-06-22T02:35:30;16.87;;;9.13;;
3567;SDS011;1798;48.486;9.232;2023-06-22T02:38:02;23.23;;;9.43;;
3567;SDS011;1798;48.486;9.232;2023-06-22T02:40:29;18.53;;;8.50;;
3567;SDS011;1798;48.486;9.232;2023-06-22T02:42:57;24.53;;;10.27;;
3567;SDS011;1798;48.486;9.232;2023-06-22T02:45:26;20.37;;;8.67;;
3567;SDS011;1798;48.486;9.232;2023-06-22T02:47:53;20.03;;;8.87;;
3567;SDS011;1798;48.486;9.232;2023-06-22T02:50:20;16.13;;;8.70;;
3567;SDS011;1798;48.486;9.232;2023-06-22T02:52:46;24.33;;;9.07;;
3567;SDS011;1798;48.486;9.232;2023-06-22T02:55:14;15.33;;;8.47;;
3567;SDS011;1798;48.486;9.232;2023-06-22T02:57:41;15.17;;;9.00;;
3567;SDS011;1798;48.486;9.232;2023-06-22T03:00:10;23.20;;;8.50;;
3567;SDS011;1798;48.486;9.232;2023-06-22T03:02:42;16.77;;;9.37;;
3567;SDS011;1798;48.486;9.232;2023-06-22T03:05:09;16.00;;;9.20;;
3567;SDS011;1798;48.486;9.232;2023-06-22T03:07:38;17.17;;;9.27;;
3567;SDS011;1798;48.486;9.232;2023-06-22T03:10:06;17.90;;;9.63;;
3567;SDS011;1798;48.486;9.232;2023-06-22T03:12:36;18.33;;;8.90;;
3567;SDS011;1798;48.486;9.232;2023-06-22T03:15:04;19.23;;;9.40;;
3567;SDS011;1798;48.486;9.232;2023-06-22T03:17:32;17.13;;;9.70;;
3567;SDS011;1798;48.486;9.232;2023-06-22T03:19:59;18.90;;;9.37;;
3567;SDS011;1798;48.486;9.232;2023-06-22T03:22:26;21.93;;;8.73;;
3567;SDS011;1798;48.486;9.232;2023-06-22T03:24:53;18.07;;;8.57;;
3567;SDS011;1798;48.486;9.232;2023-06-22T03:27:19;15.90;;;9.37;;
3567;SDS011;1798;48.486;9.232;2023-06-22T03:29:47;28.40;;;10.33;;
3567;SDS011;1798;48.486;9.232;2023-06-22T03:32:14;18.27;;;8.97;;
3567;SDS011;1798;48.486;9.232;2023-06-22T03:34:41;19.10;;;9.60;;
3567;SDS011;1798;48.486;9.232;2023-06-22T03:37:12;22.47;;;9.43;;
3567;SDS011;1798;48.486;9.232;2023-06-22T03:39:39;25.90;;;8.47;;
3567;SDS011;1798;48.486;9.232;2023-06-22T03:42:06;19.70;;;8.17;;
3567;SDS011;1798;48.486;9.232;2023-06-22T03:44:33;19.47;;;8.63;;
3567;SDS011;1798;48.486;9.232;2023-06-22T03:47:01;19.60;;;9.30;;
3567;SDS011;1798;48.486;9.232;2023-06-22T03:49:28;23.80;;;9.83;;
3567;SDS011;1798;48.486;9.232;2023-06-22T03:51:55;22.40;;;8.80;;
3567;SDS011;1798;48.486;9.232;2023-06-22T03:54:22;31.90;;;9.77;;
3567;SDS011;1798;48.486;9.232;2023-06-22T03:56:48;24.03;;;10.80;;
3567;SDS011;1798;48.486;9.232;2023-06-22T03:59:15;22.67;;;9.17;;
3567;SDS011;1798;48.486;9.232;2023-06-22T04:01:42;16.50;;;9.57;;
3567;SDS011;1798;48.486;9.232;2023-06-22T04:04:10;16.43;;;8.10;;
3567;SDS011;1798;48.486;9.232;2023-06-22T04:06:36;20.40;;;8.20;;
3567;SDS011;1798;48.486;9.232;2023-06-22T04:09:03;16.53;;;9.20;;
3567;SDS011;1798;48.486;9.232;2023-06-22T04:11:29;20.60;;;8.93;;
3567;SDS011;1798;48.486;9.232;2023-06-22T04:13:56;12.87;;;8.43;;
3567;SDS011;1798;48.486;9.232;2023-06-22T04:16:23;25.43;;;9.57;;
3567;SDS011;1798;48.486;9.232;2023-06-22T04:18:52;16.10;;;8.50;;
3567;SDS011;1798;48.486;9.232;2023-06-22T04:21:20;19.87;;;8.73;;
3567;SDS011;1798;48.486;9.232;2023-06-22T04:23:47;18.73;;;8.47;;
3567;SDS011;1798;48.486;9.232;2023-06-22T04:26:14;20.20;;;8.67;;
3567;SDS011;1798;48.486;9.232;2023-06-22T04:28:41;13.03;;;7.30;;
3567;SDS011;1798;48.486;9.232;2023-06-22T04:31:07;16.43;;;8.90;;
3567;SDS011;1798;48.486;9.232;2023-06-22T04:33:34;24.63;;;8.87;;
3567;SDS011;1798;48.486;9.232;2023-06-22T04:36:01;18.73;;;8.70;;
3567;SDS011;1798;48.486;9.232;2023-06-22T04:38:30;18.83;;;9.37;;
3567;SDS011;1798;48.486;9.232;2023-06-22T04:40:58;28.07;;;8.13;;
3567;SDS011;1798;48.486;9.232;2023-06-22T04:43:26;18.17;;;10.87;;
3567;SDS011;1798;48.486;9.232;2023-06-22T04:45:55;18.00;;;8.60;;
3567;SDS011;1798;48.486;9.232;2023-06-22T04:48:22;16.10;;;9.23;;
3567;SDS011;1798;48.486;9.232;2023-06-22T04:50:48;29.43;;;8.27;;
3567;SDS011;1798;48.486;9.232;2023-06-22T04:53:15;21.23;;;9.00;;
3567;SDS011;1798;48.486;9.232;2023-06-22T04:55:43;23.37;;;8.87;;
3567;SDS011;1798;48.486;9.232;2023-06-22T04:58:11;21.50;;;10.20;;
3567;SDS011;1798;48.486;9.232;2023-06-22T05:00:38;24.53;;;9.07;;
3567;SDS011;1798;48.486;9.232;2023-06-22T05:03:05;15.57;;;8.97;;
3567;SDS011;1798;48.486;9.232;2023-06-22T05:05:36;21.53;;;10.33;;
3567;SDS011;1798;48.486;9.232;2023-06-22T05:08:02;23.33;;;9.27;;
3567;SDS011;1798;48.486;9.232;2023-06-22T05:10:31;29.43;;;11.07;;
3567;SDS011;1798;48.486;9.232;2023-06-22T05:12:59;23.17;;;9.83;;
3567;SDS011;1798;48.486;9.232;2023-06-22T05:15:26;29.60;;;12.60;;
3567;SDS011;1798;48.486;9.232;2023-06-22T05:17:55;63.97;;;10.27;;
3567;SDS011;1798;48.486;9.232;2023-06-22T05:20:23;17.77;;;9.67;;
3567;SDS011;1798;48.486;9.232;2023-06-22T05:22:50;28.93;;;11.90;;
3567;SDS011;1798;48.486;9.232;2023-06-22T05:25:17;25.83;;;9.77;;
3567;SDS011;1798;48.486;9.232;2023-06-22T05:27:44;25.93;;;10.10;;
3567;SDS011;1798;48.486;9.232;2023-06-22T05:30:12;23.57;;;9.27;;
3567;SDS011;1798;48.486;9.232;2023-06-22T05:32:41;14.60;;;7.70;;
3567;SDS011;1798;48.486;9.232;2023-06-22T05:35:09;35.47;;;9.83;;
3567;SDS011;1798;48.486;9.232;2023-06-22T05:37:35;18.53;;;9.57;;
3567;SDS011;1798;48.486;9.232;2023-06-22T05:40:02;17.90;;;9.83;;
3567;SDS011;1798;48.486;9.232;2023-06-22T05:42:32;17.33;;;9.13;;
3567;SDS011;1798;48.486;9.232;2023-06-22T05:44:59;20.90;;;9.70;;
3567;SDS011;1798;48.486;9.232;2023-06-22T05:47:27;17.67;;;9.03;;
3567;SDS011;1798;48.486;9.232;2023-06-22T05:49:53;15.80;;;8.43;;
3567;SDS011;1798;48.486;9.232;2023-06-22T05:52:20;14.07;;;8.60;;
3567;SDS011;1798;48.486;9.232;2023-06-22T05:54:47;18.20;;;10.40;;
3567;SDS011;1798;48.486;9.232;2023-06-22T05:57:14;21.03;;;10.70;;
3567;SDS011;1798;48.486;9.232;2023-06-22T05:59:41;35.83;;;10.67;;
3567;SDS011;1798;48.486;9.232;2023-06-22T06:02:07;16.00;;;10.00;;
3567;SDS011;1798;48.486;9.232;2023-06-22T06:04:36;20.63;;;10.10;;
3567;SDS011;1798;48.486;9.232;2023-06-22T06:07:03;40.23;;;14.57;;
3567;SDS011;1798;48.486;9.232;2023-06-22T06:09:30;20.43;;;11.00;;
3567;SDS011;1798;48.486;9.232;2023-06-22T06:11:56;16.53;;;9.67;;
3567;SDS011;1798;48.486;9.232;2023-06-22T06:14:23;26.73;;;10.40;;
3567;SDS011;1798;48.486;9.232;2023-06-22T06:16:50;21.07;;;9.30;;
3567;SDS011;1798;48.486;9.232;2023-06-22T06:19:16;24.93;;;11.70;;
3567;SDS011;1798;48.486;9.232;2023-06-22T06:21:44;34.70;;;14.60;;
3567;SDS011;1798;48.486;9.232;2023-06-22T06:24:11;16.93;;;8.67;;
3567;SDS011;1798;48.486;9.232;2023-06-22T06:26:38;17.40;;;8.83;;
3567;SDS011;1798;48.486;9.232;2023-06-22T06:29:05;21.70;;;9.30;;
3567;SDS011;1798;48.486;9.232;2023-06-22T06:31:32;30.97;;;11.53;;
3567;SDS011;1798;48.486;9.232;2023-06-22T06:33:59;22.63;;;11.33;;
3567;SDS011;1798;48.486;9.232;2023-06-22T06:36:25;24.67;;;10.63;;
3567;SDS011;1798;48.486;9.232;2023-06-22T06:38:53;15.07;;;7.73;;
3567;SDS011;1798;48.486;9.232;2023-06-22T06:41:20;16.70;;;9.23;;
3567;SDS011;1798;48.486;9.232;2023-06-22T06:43:48;37.87;;;11.53;;
3567;SDS011;1798;48.486;9.232;2023-06-22T06:46:14;23.87;;;10.53;;
3567;SDS011;1798;48.486;9.232;2023-06-22T06:48:41;32.40;;;11.63;;
3567;SDS011;1798;48.486;9.232;2023-06-22T06:51:08;20.07;;;9.43;;
3567;SDS011;1798;48.486;9.232;2023-06-22T06:53:35;23.73;;;10.97;;
3567;SDS011;1798;48.486;9.232;2023-06-22T06:56:03;25.93;;;10.70;;
3567;SDS011;1798;48.486;9.232;2023-06-22T06:58:31;16.37;;;9.23;;
3567;SDS011;1798;48.486;9.232;2023-06-22T07:00:58;33.33;;;11.50;;
3567;SDS011;1798;48.486;9.232;2023-06-22T07:03:25;15.37;;;8.63;;
3567;SDS011;1798;48.486;9.232;2023-06-22T07:05:51;14.90;;;7.73;;
3567;SDS011;1798;48.486;9.232;2023-06-22T07:08:18;19.73;;;8.00;;
3567;SDS011;1798;48.486;9.232;2023-06-22T07:10:45;38.17;;;14.07;;
3567;SDS011;1798;48.486;9.232;2023-06-22T07:13:13;22.00;;;10.00;;
3567;SDS011;1798;48.486;9.232;2023-06-22T07:15:39;37.63;;;9.67;;
3567;SDS011;1798;48.486;9.232;2023-06-22T07:18:06;24.03;;;10.27;;
3567;SDS011;1798;48.486;9.232;2023-06-22T07:20:33;18.03;;;9.47;;
3567;SDS011;1798;48.486;9.232;2023-06-22T07:22:59;31.57;;;10.80;;
3567;SDS011;1798;48.486;9.232;2023-06-22T07:25:26;20.60;;;9.30;;
3567;SDS011;1798;48.486;9.232;2023-06-22T07:27:57;20.37;;;9.03;;
3567;SDS011;1798;48.486;9.232;2023-06-22T07:30:25;13.47;;;7.77;;
3567;SDS011;1798;48.486;9.232;2023-06-22T07:32:52;13.23;;;7.90;;
3567;SDS011;1798;48.486;9.232;2023-06-22T07:35:19;11.80;;;7.40;;
3567;SDS011;1798;48.486;9.232;2023-06-22T07:37:46;15.20;;;7.03;;
3567;SDS011;1798;48.486;9.232;2023-06-22T07:40:13;23.63;;;8.40;;
3567;SDS011;1798;48.486;9.232;2023-06-22T07:42:39;18.77;;;8.60;;
3567;SDS011;1798;48.486;9.232;2023-06-22T07:45:07;13.60;;;7.80;;
3567;SDS011;1798;48.486;9.232;2023-06-22T07:47:36;17.47;;;8.23;;
3567;SDS011;1798;48.486;9.232;2023-06-22T07:50:03;17.10;;;8.10;;
3567;SDS011;1798;48.486;9.232;2023-06-22T07:52:30;21.63;;;9.23;;
3567;SDS011;1798;48.486;9.232;2023-06-22T07:54:57;12.87;;;7.67;;
3567;SDS011;1798;48.486;9.232;2023-06-22T07:57:24;18.23;;;8.50;;
3567;SDS011;1798;48.486;9.232;2023-06-22T07:59:57;15.67;;;7.77;;
3567;SDS011;1798;48.486;9.232;2023-06-22T08:02:24;12.27;;;6.83;;
3567;SDS011;1798;48.486;9.232;2023-06-22T08:04:52;12.23;;;7.23;;
3567;SDS011;1798;48.486;9.232;2023-06-22T08:07:18;13.73;;;7.33;;
3567;SDS011;1798;48.486;9.232;2023-06-22T08:09:46;30.43;;;9.83;;
3567;SDS011;1798;48.486;9.232;2023-06-22T08:12:13;24.73;;;8.67;;
3567;SDS011;1798;48.486;9.232;2023-06-22T08:14:41;22.50;;;9.00;;
3567;SDS011;1798;48.486;9.232;2023-06-22T08:17:08;12.90;;;8.20;;
3567;SDS011;1798;48.486;9.232;2023-06-22T08:19:36;14.50;;;7.53;;
3567;SDS011;1798;48.486;9.232;2023-06-22T08:22:05;17.70;;;8.23;;
3567;SDS011;1798;48.486;9.232;2023-06-22T08:24:32;12.77;;;8.27;;
3567;SDS011;1798;48.486;9.232;2023-06-22T08:26:59;16.90;;;8.57;;
3567;SDS011;1798;48.486;9.232;2023-06-22T08:29:26;18.30;;;8.37;;
3567;SDS011;1798;48.486;9.232;2023-06-22T08:31:52;15.00;;;8.33;;
3567;SDS011;1798;48.486;9.232;2023-06-22T08:34:19;15.90;;;9.53;;
3567;SDS011;1798;48.486;9.232;2023-06-22T08:36:48;17.30;;;8.20;;
3567;SDS011;1798;48.486;9.232;2023-06-22T08:39:19;12.57;;;7.43;;
3567;SDS011;1798;48.486;9.232;2023-06-22T08:41:46;16.77;;;8.63;;
3567;SDS011;1798;48.486;9.232;2023-06-22T08:44:13;24.90;;;8.87;;
3567;SDS011;1798;48.486;9.232;2023-06-22T08:46:39;20.83;;;10.20;;
3567;SDS011;1798;48.486;9.232;2023-06-22T08:49:07;35.10;;;9.90;;
3567;SDS011;1798;48.486;9.232;2023-06-22T08:51:34;14.40;;;8.63;;
3567;SDS011;1798;48.486;9.232;2023-06-22T08:54:01;28.83;;;8.33;;
3567;SDS011;1798;48.486;9.232;2023-06-22T08:56:29;20.90;;;10.33;;
3567;SDS011;1798;48.486;9.232;2023-06-22T08:58:56;13.70;;;8.37;;
3567;SDS011;1798;48.486;9.232;2023-06-22T09:01:22;22.77;;;8.70;;
3567;SDS011;1798;48.486;9.232;2023-06-22T09:03:49;27.77;;;9.40;;
3567;SDS011;1798;48.486;9.232;2023-06-22T09:06:19;20.23;;;8.73;;
3567;SDS011;1798;48.486;9.232;2023-06-22T09:08:46;13.37;;;8.03;;
3567;SDS011;1798;48.486;9.232;2023-06-22T09:11:13;15.53;;;7.83;;
3567;SDS011;1798;48.486;9.232;2023-06-22T09:13:41;16.37;;;8.00;;
3567;SDS011;1798;48.486;9.232;2023-06-22T09:16:08;15.50;;;8.70;;
3567;SDS011;1798;48.486;9.232;2023-06-22T09:18:35;14.10;;;8.50;;
3567;SDS011;1798;48.486;9.232;2023-06-22T09:21:02;16.97;;;7.50;;
3567;SDS011;1798;48.486;9.232;2023-06-22T09:23:29;17.20;;;8.80;;
3567;SDS011;1798;48.486;9.232;2023-06-22T09:25:56;28.07;;;9.93;;
3567;SDS011;1798;48.486;9.232;2023-06-22T09:28:22;31.00;;;9.50;;
3567;SDS011;1798;48.486;9.232;2023-06-22T09:30:50;29.87;;;11.70;;
3567;SDS011;1798;48.486;9.232;2023-06-22T09:33:24;19.37;;;9.00;;
3567;SDS011;1798;48.486;9.232;2023-06-22T09:35:50;17.10;;;6.80;;
3567;SDS011;1798;48.486;9.232;2023-06-22T09:38:17;16.10;;;8.17;;
3567;SDS011;1798;48.486;9.232;2023-06-22T09:40:44;15.40;;;6.97;;
3567;SDS011;1798;48.486;9.232;2023-06-22T09:43:10;14.40;;;7.60;;
3567;SDS011;1798;48.486;9.232;2023-06-22T09:45:37;12.57;;;6.93;;
3567;SDS011;1798;48.486;9.232;2023-06-22T09:48:06;15.20;;;7.60;;
3567;SDS011;1798;48.486;9.232;2023-06-22T09:50:35;16.67;;;8.20;;
3567;SDS011;1798;48.486;9.232;2023-06-22T09:53:01;17.53;;;9.70;;
3567;SDS011;1798;48.486;9.232;2023-06-22T09:55:28;40.27;;;9.17;;
3567;SDS011;1798;48.486;9.232;2023-06-22T09:57:54;17.53;;;9.50;;
3567;SDS011;1798;48.486;9.232;2023-06-22T10:00:21;15.23;;;7.10;;
3567;SDS011;1798;48.486;9.232;2023-06-22T10:02:48;14.37;;;8.43;;
3567;SDS011;1798;48.486;9.232;2023-06-22T10:05:17;18.00;;;8.80;;
3567;SDS011;1798;48.486;9.232;2023-06-22T10:07:44;14.70;;;8.10;;
3567;SDS011;1798;48.486;9.232;2023-06-22T10:10:11;20.33;;;8.27;;
3567;SDS011;1798;48.486;9.232;2023-06-22T10:12:40;13.23;;;8.43;;
3567;SDS011;1798;48.486;9.232;2023-06-22T10:15:08;22.47;;;7.53;;
3567;SDS011;1798;48.486;9.232;2023-06-22T10:17:36;19.53;;;7.83;;
3567;SDS011;1798;48.486;9.232;2023-06-22T10:20:03;19.43;;;9.43;;
3567;SDS011;1798;48.486;9.232;2023-06-22T10:22:37;21.53;;;8.20;;
3567;SDS011;1798;48.486;9.232;2023-06-22T10:25:05;17.70;;;7.40;;
3567;SDS011;1798;48.486;9.232;2023-06-22T10:27:33;20.90;;;9.20;;
3567;SDS011;1798;48.486;9.232;2023-06-22T10:29:59;11.63;;;7.73;;
3567;SDS011;1798;48.486;9.232;2023-06-22T10:32:26;14.83;;;8.87;;
3567;SDS011;1798;48.486;9.232;2023-06-22T10:34:54;16.87;;;8.87;;
3567;SDS011;1798;48.486;9.232;2023-06-22T10:37:20;15.43;;;8.53;;
3567;SDS011;1798;48.486;9.232;2023-06-22T10:39:49;12.53;;;7.67;;
3567;SDS011;1798;48.486;9.232;2023-06-22T10:42:15;16.10;;;7.67;;
3567;SDS011;1798;48.486;9.232;2023-06-22T10:44:42;22.13;;;9.93;;
3567;SDS011;1798;48.486;9.232;2023-06-22T10:47:09;17.87;;;8.57;;
3567;SDS011;1798;48.486;9.232;2023-06-22T10:49:37;26.80;;;11.53;;
3567;SDS011;1798;48.486;9.232;2023-06-22T10:52:04;15.33;;;9.00;;
3567;SDS011;1798;48.486;9.232;2023-06-22T10:54:32;18.10;;;8.53;;
3567;SDS011;1798;48.486;9.232;2023-06-22T10:57:00;41.60;;;11.17;;
3567;SDS011;1798;48.486;9.232;2023-06-22T10:59:27;13.97;;;7.93;;
3567;SDS011;1798;48.486;9.232;2023-06-22T11:01:54;24.37;;;8.90;;
3567;SDS011;1798;48.486;9.232;2023-06-22T11:04:21;19.13;;;8.30;;
3567;SDS011;1798;48.486;9.232;2023-06-22T11:06:48;18.50;;;7.93;;
3567;SDS011;1798;48.486;9.232;2023-06-22T11:09:15;14.77;;;9.20;;
3567;SDS011;1798;48.486;9.232;2023-06-22T11:11:45;15.93;;;8.67;;
3567;SDS011;1798;48.486;9.232;2023-06-22T11:14:13;19.23;;;8.93;;
3567;SDS011;1798;48.486;9.232;2023-06-22T11:16:40;16.80;;;9.83;;
3567;SDS011;1798;48.486;9.232;2023-06-22T11:19:07;18.70;;;8.87;;
3567;SDS011;1798;48.486;9.232;2023-06-22T11:21:34;19.63;;;9.70;;
3567;SDS011;1798;48.486;9.232;2023-06-22T11:24:00;18.83;;;10.00;;
3567;SDS011;1798;48.486;9.232;2023-06-22T11:26:27;16.93;;;9.20;;
3567;SDS011;1798;48.486;9.232;2023-06-22T11:28:54;38.30;;;11.23;;
3567;SDS011;1798;48.486;9.232;2023-06-22T11:31:23;16.70;;;9.07;;
3567;SDS011;1798;48.486;9.232;2023-06-22T11:33:50;47.80;;;12.17;;
3567;SDS011;1798;48.486;9.232;2023-06-22T11:36:17;21.40;;;9.20;;
3567;SDS011;1798;48.486;9.232;2023-06-22T11:38:43;18.93;;;10.13;;
3567;SDS011;1798;48.486;9.232;2023-06-22T11:41:10;19.33;;;10.27;;
3567;SDS011;1798;48.486;9.232;2023-06-22T11:43:37;19.27;;;10.10;;
3567;SDS011;1798;48.486;9.232;2023-06-22T11:46:04;23.27;;;9.17;;
3567;SDS011;1798;48.486;9.232;2023-06-22T11:48:32;18.57;;;10.83;;
3567;SDS011;1798;48.486;9.232;2023-06-22T11:50:59;22.57;;;9.50;;
3567;SDS011;1798;48.486;9.232;2023-06-22T11:53:27;32.33;;;11.80;;
3567;SDS011;1798;48.486;9.232;2023-06-22T11:55:54;31.00;;;10.00;;
3567;SDS011;1798;48.486;9.232;2023-06-22T11:58:22;26.37;;;8.60;;
3567;SDS011;1798;48.486;9.232;2023-06-22T12:00:49;29.77;;;10.27;;
3567;SDS011;1798;48.486;9.232;2023-06-22T12:03:17;20.20;;;9.67;;
3567;SDS011;1798;48.486;9.232;2023-06-22T12:05:45;24.63;;;9.53;;
3567;SDS011;1798;48.486;9.232;2023-06-22T12:08:11;19.23;;;10.00;;
3567;SDS011;1798;48.486;9.232;2023-06-22T12:10:39;26.70;;;10.60;;
3567;SDS011;1798;48.486;9.232;2023-06-22T12:13:06;19.87;;;9.17;;
3567;SDS011;1798;48.486;9.232;2023-06-22T12:15:33;21.13;;;10.37;;
3567;SDS011;1798;48.486;9.232;2023-06-22T12:18:00;21.37;;;9.43;;
3567;SDS011;1798;48.486;9.232;2023-06-22T12:20:27;25.97;;;10.93;;
3567;SDS011;1798;48.486;9.232;2023-06-22T12:22:55;19.20;;;10.13;;
3567;SDS011;1798;48.486;9.232;2023-06-22T12:25:23;21.80;;;10.47;;
3567;SDS011;1798;48.486;9.232;2023-06-22T12:27:49;25.80;;;9.50;;
3567;SDS011;1798;48.486;9.232;2023-06-22T12:30:16;39.23;;;12.40;;
3567;SDS011;1798;48.486;9.232;2023-06-22T12:32:43;35.90;;;11.87;;
3567;SDS011;1798;48.486;9.232;2023-06-22T12:35:10;14.40;;;9.40;;
3567;SDS011;1798;48.486;9.232;2023-06-22T12:37:39;17.30;;;9.60;;
3567;SDS011;1798;48.486;9.232;2023-06-22T12:40:08;29.60;;;10.43;;
3567;SDS011;1798;48.486;9.232;2023-06-22T12:42:36;17.43;;;8.63;;
3567;SDS011;1798;48.486;9.232;2023-06-22T12:45:03;16.83;;;10.27;;
3567;SDS011;1798;48.486;9.232;2023-06-22T12:47:30;28.20;;;11.10;;
3567;SDS011;1798;48.486;9.232;2023-06-22T12:49:57;22.80;;;10.43;;
3567;SDS011;1798;48.486;9.232;2023-06-22T12:52:23;25.03;;;9.60;;
3567;SDS011;1798;48.486;9.232;2023-06-22T12:54:50;28.50;;;10.43;;
3567;SDS011;1798;48.486;9.232;2023-06-22T12:57:18;23.73;;;10.53;;
3567;SDS011;1798;48.486;9.232;2023-06-22T12:59:45;34.87;;;11.03;;
3567;SDS011;1798;48.486;9.232;2023-06-22T13:02:12;18.30;;;9.83;;
3567;SDS011;1798;48.486;9.232;2023-06-22T13:04:39;20.87;;;10.33;;
3567;SDS011;1798;48.486;9.232;2023-06-22T13:07:05;19.23;;;11.70;;
3567;SDS011;1798;48.486;9.232;2023-06-22T13:09:32;34.67;;;10.20;;
3567;SDS011;1798;48.486;9.232;2023-06-22T13:12:00;18.70;;;9.63;;
3567;SDS011;1798;48.486;9.232;2023-06-22T13:14:28;26.07;;;10.87;;
3567;SDS011;1798;48.486;9.232;2023-06-22T13:16:55;24.00;;;11.00;;
3567;SDS011;1798;48.486;9.232;2023-06-22T13:19:21;20.43;;;11.00;;
3567;SDS011;1798;48.486;9.232;2023-06-22T13:21:48;22.50;;;11.67;;
3567;SDS011;1798;48.486;9.232;2023-06-22T13:24:15;28.47;;;11.80;;
3567;SDS011;1798;48.486;9.232;2023-06-22T13:26:41;23.53;;;9.23;;
3567;SDS011;1798;48.486;9.232;2023-06-22T13:29:08;20.70;;;11.13;;
3567;SDS011;1798;48.486;9.232;2023-06-22T13:31:36;23.50;;;11.00;;
3567;SDS011;1798;48.486;9.232;2023-06-22T13:34:03;19.90;;;10.50;;
3567;SDS011;1798;48.486;9.232;2023-06-22T13:36:30;23.80;;;10.97;;
3567;SDS011;1798;48.486;9.232;2023-06-22T13:38:57;21.10;;;10.47;;
3567;SDS011;1798;48.486;9.232;2023-06-22T13:41:23;19.53;;;10.40;;
3567;SDS011;1798;48.486;9.232;2023-06-22T13:43:50;19.73;;;10.57;;
3567;SDS011;1798;48.486;9.232;2023-06-22T13:46:17;22.40;;;10.30;;
3567;SDS011;1798;48.486;9.232;2023-06-22T13:48:45;25.60;;;10.47;;
3567;SDS011;1798;48.486;9.232;2023-06-22T13:51:12;70.93;;;15.10;;
3567;SDS011;1798;48.486;9.232;2023-06-22T13:53:39;49.53;;;12.43;;
3567;SDS011;1798;48.486;9.232;2023-06-22T13:56:06;27.20;;;13.30;;
3567;SDS011;1798;48.486;9.232;2023-06-22T13:58:32;35.17;;;15.10;;
3567;SDS011;1798;48.486;9.232;2023-06-22T14:00:59;27.73;;;13.70;;
3567;SDS011;1798;48.486;9.232;2023-06-22T14:03:26;28.43;;;13.27;;
3567;SDS011;1798;48.486;9.232;2023-06-22T14:05:55;41.37;;;13.20;;
3567;SDS011;1798;48.486;9.232;2023-06-22T14:08:23;38.13;;;14.03;;
3567;SDS011;1798;48.486;9.232;2023-06-22T14:10:50;39.87;;;11.77;;
3567;SDS011;1798;48.486;9.232;2023-06-22T14:13:18;36.43;;;12.67;;
3567;SDS011;1798;48.486;9.232;2023-06-22T14:15:45;29.37;;;14.17;;
3567;SDS011;1798;48.486;9.232;2023-06-22T14:18:13;42.70;;;12.67;;
3567;SDS011;1798;48.486;9.232;2023-06-22T14:20:40;33.07;;;12.90;;
3567;SDS011;1798;48.486;9.232;2023-06-22T14:23:08;28.50;;;12.17;;
3567;SDS011;1798;48.486;9.232;2023-06-22T14:25:35;43.23;;;13.37;;
3567;SDS011;1798;48.486;9.232;2023-06-22T14:28:01;28.20;;;14.03;;
3567;SDS011;1798;48.486;9.232;2023-06-22T14:30:28;42.63;;;12.80;;
3567;SDS011;1798;48.486;9.232;2023-06-22T14:32:55;29.17;;;14.73;;
3567;SDS011;1798;48.486;9.232;2023-06-22T14:35:21;22.30;;;12.10;;
3567;SDS011;1798;48.486;9.232;2023-06-22T14:37:49;39.50;;;13.30;;
3567;SDS011;1798;48.486;9.232;2023-06-22T14:40:17;40.37;;;12.47;;
3567;SDS011;1798;48.486;9.232;2023-06-22T14:42:44;24.57;;;11.57;;
3567;SDS011;1798;48.486;9.232;2023-06-22T14:45:12;25.07;;;11.67;;
3567;SDS011;1798;48.486;9.232;2023-06-22T14:47:39;36.23;;;14.00;;
3567;SDS011;1798;48.486;9.232;2023-06-22T14:50:06;27.40;;;12.17;;
3567;SDS011;1798;48.486;9.232;2023-06-22T14:52:33;25.40;;;11.30;;
3567;SDS011;1798;48.486;9.232;2023-06-22T14:54:59;32.30;;;14.40;;
3567;SDS011;1798;48.486;9.232;2023-06-22T14:57:28;21.50;;;11.90;;
3567;SDS011;1798;48.486;9.232;2023-06-22T14:59:55;27.97;;;11.27;;
3567;SDS011;1798;48.486;9.232;2023-06-22T15:02:21;35.27;;;12.40;;